Time;durP1;ratioP1;P1;durP2;ratioP2;P2;SDS_P1;SDS_P2;PMS_P1;PMS_P2;Temp;Humidity;BMP_temperature;BMP_pressure;BME280_temperature;BME280_humidity;BME280_pressure;Samples;Min_cycle;Max_cycle;Signal;HPM_P1;HPM_P2
2023/04/28 00:01:33;;;;;;;12.40;3.83;;;;;;;39.98;36.26;101047.19;4945209;28;20892;-75
2023/04/28 00:04:00;;;;;;;8.90;3.10;;;;;;;40.12;36.52;101047.06;4953147;29;20580;-74
2023/04/28 00:06:27;;;;;;;12.47;3.60;;;;;;;40.17;36.07;101049.66;4953118;28;20597;-74
2023/04/28 00:08:53;;;;;;;11.80;4.77;;;;;;;40.32;36.03;101043.72;4953028;29;20462;-77
2023/04/28 00:11:20;;;;;;;16.00;3.37;;;;;;;40.17;36.26;101034.13;4949536;28;21035;-79
2023/04/28 00:13:46;;;;;;;14.53;4.13;;;;;;;40.18;35.93;101030.31;4951446;29;20526;-79
2023/04/28 00:16:13;;;;;;;14.53;5.50;;;;;;;40.00;36.39;101031.34;4951870;28;20851;-76
2023/04/28 00:18:39;;;;;;;11.80;3.63;;;;;;;40.21;36.07;101023.44;4952135;29;20424;-77
2023/04/28 00:21:06;;;;;;;18.53;5.10;;;;;;;40.19;35.59;101023.75;4953525;28;20434;-75
2023/04/28 00:23:32;;;;;;;19.07;5.50;;;;;;;40.09;35.83;101021.34;4952860;29;20482;-75
2023/04/28 00:25:58;;;;;;;17.20;4.27;;;;;;;39.84;36.11;101012.00;4952583;28;21019;-74
2023/04/28 00:28:25;;;;;;;14.07;4.23;;;;;;;40.00;35.69;101007.69;4949806;28;20431;-80
2023/04/28 00:30:51;;;;;;;15.23;3.57;;;;;;;40.06;35.75;101005.66;4952622;28;20431;-75
2023/04/28 00:33:17;;;;;;;13.37;5.80;;;;;;;39.86;35.79;101004.31;4948364;28;20973;-74
2023/04/28 00:35:47;;;;;;;16.73;4.00;;;;;;;40.05;35.05;101006.78;4945705;28;20497;-75
2023/04/28 00:38:14;;;;;;;14.50;4.17;;;;;;;40.07;34.88;101007.25;4951710;28;20821;-76
2023/04/28 00:40:40;;;;;;;12.33;3.70;;;;;;;39.99;35.41;101000.69;4953876;28;20431;-76
2023/04/28 00:43:07;;;;;;;15.00;4.53;;;;;;;40.08;35.72;100992.56;4952662;29;20470;-76
2023/04/28 00:45:33;;;;;;;19.67;4.30;;;;;;;40.04;35.81;100988.91;4952582;29;20998;-76
2023/04/28 00:48:00;;;;;;;11.80;3.63;;;;;;;40.06;36.06;100983.94;4953882;28;20458;-75
2023/04/28 00:50:27;;;;;;;18.33;4.20;;;;;;;40.19;36.07;100982.97;4949584;29;20438;-74
2023/04/28 00:52:54;;;;;;;11.63;5.37;;;;;;;40.10;36.15;100978.69;4946114;29;20485;-74
2023/04/28 00:55:21;;;;;;;22.63;4.77;;;;;;;40.19;36.03;100987.63;4936704;29;20443;-76
2023/04/28 00:57:48;;;;;;;14.00;4.20;;;;;;;40.18;35.79;100986.81;4936959;29;20567;-74
2023/04/28 01:00:15;;;;;;;13.30;4.47;;;;;;;40.12;36.34;100985.38;4952688;29;20486;-73
2023/04/28 01:02:41;;;;;;;12.37;3.37;;;;;;;40.12;36.21;100982.66;4952867;29;20550;-76
2023/04/28 01:05:09;;;;;;;12.40;3.70;;;;;;;40.31;36.23;100984.25;4953778;28;20463;-75
2023/04/28 01:07:36;;;;;;;19.23;5.40;;;;;;;40.24;36.69;100980.09;4936460;29;20483;-74
2023/04/28 01:10:02;;;;;;;10.50;4.13;;;;;;;40.30;36.83;100980.75;4952628;29;20459;-74
2023/04/28 01:12:29;;;;;;;16.93;4.60;;;;;;;40.21;36.43;100978.03;4952917;29;20485;-74
2023/04/28 01:14:56;;;;;;;14.67;5.17;;;;;;;40.31;36.57;100979.63;4928585;29;20443;-74
2023/04/28 01:17:22;;;;;;;11.93;4.03;;;;;;;40.25;36.73;100975.47;4953829;28;20435;-75
2023/04/28 01:19:49;;;;;;;15.23;3.77;;;;;;;40.26;36.62;100972.41;4952400;28;20427;-74
2023/04/28 01:22:15;;;;;;;18.50;6.27;;;;;;;40.41;36.87;100973.88;4953649;28;20497;-75
2023/04/28 01:24:42;;;;;;;18.47;4.50;;;;;;;40.17;37.51;100977.06;4956156;29;20466;-74
2023/04/28 01:27:08;;;;;;;23.03;5.73;;;;;;;40.10;38.07;100975.97;4956777;29;20427;-74
2023/04/28 01:29:35;;;;;;;18.67;5.43;;;;;;;40.24;37.22;100969.25;4955749;28;20423;-75
2023/04/28 01:32:01;;;;;;;15.17;5.20;;;;;;;40.15;37.73;100971.16;4956280;29;20435;-76
2023/04/28 01:34:27;;;;;;;10.63;5.50;;;;;;;40.06;37.09;100973.06;4955429;29;20998;-75
2023/04/28 01:36:54;;;;;;;25.87;4.60;;;;;;;40.10;36.79;100959.66;4956128;29;20834;-75
2023/04/28 01:39:20;;;;;;;14.10;4.77;;;;;;;40.17;37.39;100957.25;4956150;29;21022;-75
2023/04/28 01:41:47;;;;;;;18.43;5.27;;;;;;;39.99;37.51;100959.13;4956517;29;20946;-74
2023/04/28 01:44:13;;;;;;;11.63;3.93;;;;;;;40.08;37.28;100953.72;4957634;28;20459;-74
2023/04/28 01:46:40;;;;;;;15.93;5.57;;;;;;;40.12;37.53;100941.09;4957820;28;20794;-73
2023/04/28 01:49:06;;;;;;;25.10;7.23;;;;;;;40.10;37.70;100938.72;4956328;29;20466;-73
2023/04/28 01:51:32;;;;;;;14.63;5.30;;;;;;;40.28;37.54;100943.03;4956506;29;20433;-74
2023/04/28 01:53:59;;;;;;;13.30;5.70;;;;;;;40.07;37.21;100933.09;4956476;29;20431;-74
2023/04/28 01:56:25;;;;;;;15.20;4.60;;;;;;;39.96;37.41;100935.31;4955816;29;20453;-73
2023/04/28 01:58:51;;;;;;;18.90;4.23;;;;;;;40.23;37.00;100934.22;4956339;29;20947;-74
2023/04/28 02:01:18;;;;;;;21.67;5.33;;;;;;;40.11;37.67;100924.00;4955870;29;20422;-74
2023/04/28 02:03:44;;;;;;;17.97;3.90;;;;;;;40.00;37.33;100923.47;4957267;28;20474;-75
2023/04/28 02:06:11;;;;;;;12.43;5.67;;;;;;;40.01;37.45;100919.66;4955650;29;20474;-74
2023/04/28 02:08:37;;;;;;;15.70;4.47;;;;;;;40.06;37.50;100921.44;4956120;29;20871;-74
2023/04/28 02:11:03;;;;;;;20.10;4.57;;;;;;;39.99;37.57;100916.47;4955742;29;20427;-74
2023/04/28 02:13:30;;;;;;;19.83;4.60;;;;;;;39.92;37.95;100923.50;4956006;29;20521;-75
2023/04/28 02:16:01;;;;;;;10.63;4.53;;;;;;;39.86;37.23;100920.13;4955782;29;20990;-74
2023/04/28 02:18:27;;;;;;;16.93;3.93;;;;;;;40.03;37.41;100913.91;4955902;29;20430;-75
2023/04/28 02:20:53;;;;;;;13.23;4.30;;;;;;;40.15;37.24;100916.03;4955649;29;20431;-76
2023/04/28 02:23:20;;;;;;;13.83;4.03;;;;;;;40.05;37.38;100919.06;4957518;28;20453;-76
2023/04/28 02:25:46;;;;;;;17.23;4.73;;;;;;;40.00;37.35;100909.91;4956915;28;20466;-74
2023/04/28 02:28:13;;;;;;;9.50;3.60;;;;;;;39.94;37.19;100910.38;4955634;29;20438;-75
2023/04/28 02:30:39;;;;;;;11.20;3.73;;;;;;;39.86;37.62;100901.13;4957248;28;20534;-74
2023/04/28 02:33:05;;;;;;;10.93;3.63;;;;;;;39.91;37.29;100902.88;4954748;28;20493;-74
2023/04/28 02:35:32;;;;;;;14.23;4.93;;;;;;;40.02;37.06;100910.41;4954845;29;20427;-75
2023/04/28 02:37:58;;;;;;;11.17;3.40;;;;;;;39.98;37.16;100917.59;4955413;29;20483;-73
2023/04/28 02:40:24;;;;;;;19.90;4.57;;;;;;;39.77;37.56;100919.31;4955621;29;20439;-75
2023/04/28 02:42:51;;;;;;;14.93;4.40;;;;;;;39.84;37.28;100925.09;4939641;29;20458;-75
2023/04/28 02:45:17;;;;;;;12.50;3.40;;;;;;;39.94;37.49;100921.25;4955005;29;20554;-74
2023/04/28 02:47:43;;;;;;;10.70;4.20;;;;;;;39.95;37.31;100917.41;4955541;28;20486;-74
2023/04/28 02:50:10;;;;;;;9.43;4.37;;;;;;;40.02;36.81;100920.44;4955005;29;20434;-74
2023/04/28 02:52:37;;;;;;;15.30;4.00;;;;;;;40.06;36.71;100915.22;4955348;28;20434;-74
2023/04/28 02:55:03;;;;;;;16.73;6.63;;;;;;;40.08;36.80;100918.41;4954866;29;20546;-75
2023/04/28 02:57:30;;;;;;;12.77;4.67;;;;;;;40.00;37.10;100917.25;4956513;28;20431;-76
2023/04/28 02:59:56;;;;;;;16.57;3.17;;;;;;;40.00;37.40;100926.19;4954997;29;20447;-75
2023/04/28 03:02:23;;;;;;;14.70;3.87;;;;;;;39.94;37.25;100915.81;4954855;28;20467;-74
2023/04/28 03:04:49;;;;;;;14.30;4.10;;;;;;;39.93;37.48;100919.66;4956151;28;20541;-75
2023/04/28 03:07:15;;;;;;;12.90;3.93;;;;;;;39.86;37.02;100927.47;4954720;28;20478;-75
2023/04/28 03:09:42;;;;;;;13.67;5.13;;;;;;;39.90;37.14;100928.44;4951653;29;20431;-75
2023/04/28 03:12:08;;;;;;;17.70;4.40;;;;;;;39.92;37.55;100932.44;4954984;29;20809;-75
2023/04/28 03:14:35;;;;;;;9.73;3.90;;;;;;;39.95;36.78;100929.06;4954478;29;20431;-76
2023/04/28 03:17:01;;;;;;;11.57;5.03;;;;;;;39.95;37.10;100931.00;4956321;28;20435;-76
2023/04/28 03:19:27;;;;;;;13.30;4.30;;;;;;;39.78;37.14;100931.78;4955870;28;20522;-75
2023/04/28 03:21:54;;;;;;;12.00;4.00;;;;;;;39.73;37.08;100927.31;4954588;28;20810;-75
2023/04/28 03:24:21;;;;;;;12.57;5.27;;;;;;;39.86;37.18;100938.34;4954325;28;20467;-76
2023/04/28 03:26:47;;;;;;;13.60;4.70;;;;;;;39.81;37.17;100936.56;4954713;29;20893;-74
2023/04/28 03:29:14;;;;;;;11.37;5.07;;;;;;;39.80;37.50;100936.91;4955800;28;20431;-74
2023/04/28 03:31:41;;;;;;;9.40;3.80;;;;;;;39.79;36.96;100936.09;4955916;28;20451;-75
2023/04/28 03:34:07;;;;;;;10.50;6.03;;;;;;;39.74;37.45;100942.47;4955638;28;20428;-75
2023/04/28 03:36:34;;;;;;;13.83;4.97;;;;;;;39.79;37.21;100938.03;4954598;29;20435;-75
2023/04/28 03:39:00;;;;;;;16.87;4.73;;;;;;;39.59;37.39;100942.09;4954368;29;20504;-75
2023/04/28 03:41:26;;;;;;;11.33;4.13;;;;;;;39.67;37.18;100942.16;4954481;29;20427;-74
2023/04/28 03:43:55;;;;;;;21.80;5.57;;;;;;;39.67;37.63;100935.91;4954388;29;20447;-75
2023/04/28 03:46:21;;;;;;;17.87;5.50;;;;;;;39.65;37.48;100936.22;4955406;28;20423;-75
2023/04/28 03:48:48;;;;;;;16.33;4.10;;;;;;;39.63;37.85;100932.22;4955395;28;20474;-75
2023/04/28 03:51:14;;;;;;;11.30;4.80;;;;;;;39.45;37.89;100943.00;4954329;29;20951;-74
2023/04/28 03:53:41;;;;;;;13.03;4.30;;;;;;;39.25;38.16;100938.16;4954063;29;20525;-74
2023/04/28 03:56:07;;;;;;;14.83;4.10;;;;;;;39.36;38.15;100944.13;4954146;29;20434;-75
2023/04/28 03:58:34;;;;;;;14.30;4.37;;;;;;;39.28;38.15;100948.38;4953534;29;20419;-74
2023/04/28 04:01:00;;;;;;;16.93;5.10;;;;;;;39.37;37.82;100953.84;4953955;28;20446;-75
2023/04/28 04:03:27;;;;;;;12.43;4.90;;;;;;;39.30;37.94;100939.94;4955159;28;20430;-74
2023/04/28 04:05:54;;;;;;;13.93;5.13;;;;;;;39.40;37.82;100934.22;4954953;28;20483;-75
2023/04/28 04:08:21;;;;;;;10.13;4.60;;;;;;;39.41;38.11;100935.81;4953788;29;20514;-75
2023/04/28 04:10:47;;;;;;;9.43;4.07;;;;;;;39.48;37.83;100931.53;4953824;29;20502;-74
2023/04/28 04:13:13;;;;;;;14.27;5.17;;;;;;;39.28;38.14;100936.72;4953635;29;20437;-75
2023/04/28 04:15:40;;;;;;;10.70;4.50;;;;;;;38.86;39.13;100930.78;4953934;28;20440;-74
2023/04/28 04:18:06;;;;;;;11.40;5.60;;;;;;;38.95;38.69;100931.59;4953588;29;20509;-76
2023/04/28 04:20:33;;;;;;;16.37;5.20;;;;;;;38.95;38.58;100928.91;4953859;29;20848;-75
2023/04/28 04:23:00;;;;;;;13.10;5.87;;;;;;;39.11;38.48;100932.81;4953185;29;20451;-75
2023/04/28 04:25:27;;;;;;;12.43;4.80;;;;;;;38.81;39.12;100922.78;4953490;29;20494;-74
2023/04/28 04:27:53;;;;;;;13.63;6.40;;;;;;;38.85;38.84;100923.72;4953107;29;20435;-74
2023/04/28 04:30:19;;;;;;;18.50;5.60;;;;;;;38.85;39.17;100912.88;4953570;28;20550;-73
2023/04/28 04:32:46;;;;;;;14.07;6.43;;;;;;;38.59;39.55;100921.63;4934142;29;20416;-74
2023/04/28 04:35:12;;;;;;;14.80;6.40;;;;;;;38.76;39.10;100915.56;4942973;29;20844;-75
2023/04/28 04:37:39;;;;;;;23.47;6.47;;;;;;;38.77;39.07;100917.16;4936562;29;20514;-74
2023/04/28 04:40:06;;;;;;;13.63;6.67;;;;;;;38.78;38.91;100926.09;4953614;29;20446;-75
2023/04/28 04:42:32;;;;;;;12.70;7.50;;;;;;;38.94;38.86;100919.16;4953253;29;20427;-74
2023/04/28 04:44:59;;;;;;;13.07;6.13;;;;;;;39.10;38.50;100922.25;4952993;28;20892;-76
2023/04/28 04:47:25;;;;;;;18.53;7.40;;;;;;;38.63;39.27;100925.34;4952996;28;20429;-75
2023/04/28 04:49:52;;;;;;;12.37;7.97;;;;;;;38.76;39.25;100931.03;4953221;28;20537;-74
2023/04/28 04:52:18;;;;;;;9.37;5.70;;;;;;;38.62;39.20;100926.47;4953046;29;20508;-73
2023/04/28 04:54:45;;;;;;;14.43;8.63;;;;;;;38.77;38.99;100919.06;4933943;29;20426;-74
2023/04/28 04:57:12;;;;;;;16.23;7.40;;;;;;;38.91;38.91;100931.41;4954076;28;20912;-75
2023/04/28 04:59:38;;;;;;;15.40;7.93;;;;;;;38.90;39.02;100934.44;4952853;28;20438;-75
2023/04/28 05:02:04;;;;;;;15.87;8.30;;;;;;;38.77;38.97;100925.28;4968796;28;20521;-75
2023/04/28 05:04:31;;;;;;;22.33;10.20;;;;;;;38.84;39.23;100938.41;4954153;28;20470;-73
2023/04/28 05:06:57;;;;;;;17.47;9.03;;;;;;;38.81;38.94;100944.47;4952803;29;20491;-75
2023/04/28 05:09:24;;;;;;;16.70;8.90;;;;;;;38.85;38.63;100958.97;4954144;28;20945;-74
2023/04/28 05:11:50;;;;;;;20.10;10.57;;;;;;;38.77;39.17;100955.13;4949321;29;20411;-74
2023/04/28 05:14:16;;;;;;;18.60;10.73;;;;;;;38.89;39.10;100957.25;4941450;28;20471;-75
2023/04/28 05:16:43;;;;;;;15.93;11.20;;;;;;;38.83;39.07;100969.34;4940250;29;20427;-74
2023/04/28 05:19:09;;;;;;;15.63;8.87;;;;;;;38.84;38.99;100965.53;4954073;28;20970;-74
2023/04/28 05:21:36;;;;;;;18.03;10.93;;;;;;;38.93;38.64;100975.31;4952999;29;20462;-75
2023/04/28 05:24:02;;;;;;;20.90;10.70;;;;;;;38.82;38.63;100978.59;4952459;28;20431;-74
2023/04/28 05:26:28;;;;;;;16.73;10.70;;;;;;;38.29;39.77;100980.06;4952890;29;20428;-74
2023/04/28 05:28:55;;;;;;;20.20;12.20;;;;;;;38.49;39.44;100981.53;4952714;29;20833;-75
2023/04/28 05:31:21;;;;;;;23.90;11.90;;;;;;;38.47;39.58;100982.94;4952929;28;20943;-76
2023/04/28 05:33:48;;;;;;;17.10;10.53;;;;;;;38.72;38.90;100981.56;4952643;29;20521;-74
2023/04/28 05:36:15;;;;;;;25.73;14.80;;;;;;;38.78;38.97;100978.41;4952717;29;20430;-73
2023/04/28 05:38:43;;;;;;;33.67;15.80;;;;;;;38.88;38.89;100977.34;4952274;28;20451;-73
2023/04/28 05:41:09;;;;;;;28.13;15.40;;;;;;;38.84;38.77;100981.78;4952965;29;20442;-74
2023/04/28 05:43:36;;;;;;;37.37;17.27;;;;;;;38.79;38.96;100984.63;4952570;28;20438;-73
2023/04/28 05:46:02;;;;;;;32.73;17.60;;;;;;;38.92;38.45;100992.72;4952542;28;20613;-76
2023/04/28 05:48:29;;;;;;;26.10;17.93;;;;;;;38.97;38.65;100997.19;4952406;29;20458;-75
2023/04/28 05:50:55;;;;;;;32.57;17.00;;;;;;;39.05;38.44;101004.59;4952613;29;20433;-76
2023/04/28 05:53:22;;;;;;;27.30;14.80;;;;;;;39.09;38.61;101000.13;4952224;28;20482;-75
2023/04/28 05:55:48;;;;;;;24.83;13.67;;;;;;;39.04;38.53;100997.56;4952276;29;20839;-74
2023/04/28 05:58:15;;;;;;;23.60;13.50;;;;;;;38.95;38.78;101011.06;4951683;28;20435;-74
2023/04/28 06:00:41;;;;;;;21.63;12.43;;;;;;;38.90;38.38;101018.53;4952271;28;20450;-74
2023/04/28 06:03:09;;;;;;;16.50;15.40;;;;;;;38.96;38.78;101006.44;4951542;28;20451;-75
2023/04/28 06:05:36;;;;;;;22.33;14.00;;;;;;;38.96;38.60;101015.38;4952019;28;20898;-76
2023/04/28 06:08:03;;;;;;;26.53;14.90;;;;;;;39.11;38.53;101019.63;4952778;28;20451;-75
2023/04/28 06:10:29;;;;;;;20.13;14.13;;;;;;;39.11;38.30;101019.63;4956187;28;20783;-75
2023/04/28 06:12:56;;;;;;;24.90;14.40;;;;;;;38.96;38.44;101031.66;4953486;28;20875;-75
2023/04/28 06:15:22;;;;;;;23.63;14.20;;;;;;;38.96;38.36;101025.44;4945641;28;20430;-74
2023/04/28 06:17:48;;;;;;;24.07;16.00;;;;;;;38.85;38.79;101026.78;4955550;28;20947;-73
2023/04/28 06:20:15;;;;;;;25.87;15.27;;;;;;;38.97;38.48;101035.97;4955991;28;20434;-75
2023/04/28 06:22:42;;;;;;;23.70;13.60;;;;;;;39.04;38.41;101040.97;4955567;28;20447;-73
2023/04/28 06:25:08;;;;;;;23.53;14.73;;;;;;;39.01;38.32;101043.50;4956714;28;20804;-74
2023/04/28 06:27:35;;;;;;;28.47;14.67;;;;;;;39.13;37.89;101051.88;4955342;28;20525;-74
2023/04/28 06:30:01;;;;;;;24.43;14.57;;;;;;;38.97;38.41;101046.81;4955514;28;20454;-73
2023/04/28 06:32:28;;;;;;;27.70;16.87;;;;;;;38.81;38.72;101052.94;4955541;28;20415;-74
2023/04/28 06:34:54;;;;;;;22.40;15.03;;;;;;;39.01;38.23;101055.13;4955502;29;20447;-76
2023/04/28 06:37:20;;;;;;;22.63;17.53;;;;;;;39.07;38.56;101053.09;4954914;28;20427;-76
2023/04/28 06:39:47;;;;;;;22.53;17.60;;;;;;;39.06;38.29;101054.22;4947072;28;20465;-73
2023/04/28 06:42:17;;;;;;;26.77;18.30;;;;;;;39.03;38.45;101054.81;4939311;28;20435;-73
2023/04/28 06:44:44;;;;;;;25.20;18.40;;;;;;;38.98;38.48;101050.34;4956389;28;20451;-73
2023/04/28 06:47:10;;;;;;;23.50;16.10;;;;;;;39.03;38.53;101061.03;4955451;28;20427;-75
2023/04/28 06:49:37;;;;;;;22.53;15.50;;;;;;;38.99;38.90;101060.09;4955214;28;20439;-74
2023/04/28 06:52:03;;;;;;;23.80;14.20;;;;;;;39.10;38.28;101056.00;4953331;28;20438;-74
2023/04/28 06:54:30;;;;;;;22.00;14.77;;;;;;;39.23;38.23;101065.22;4946385;28;20486;-74
2023/04/28 06:56:56;;;;;;;26.87;16.70;;;;;;;39.25;38.36;101056.75;4954468;29;20442;-75
2023/04/28 06:59:23;;;;;;;22.70;16.93;;;;;;;39.25;38.43;101065.69;4955246;29;20439;-75
2023/04/28 07:01:49;;;;;;;22.60;17.00;;;;;;;39.29;38.52;101065.84;4954751;29;20431;-76
2023/04/28 07:04:15;;;;;;;29.30;18.57;;;;;;;39.27;38.15;101076.22;4956271;28;20462;-76
2023/04/28 07:06:42;;;;;;;23.27;16.10;;;;;;;39.36;37.95;101079.81;4955688;28;20999;-75
2023/04/28 07:09:08;;;;;;;21.60;14.63;;;;;;;39.36;38.20;101079.81;4954836;29;20481;-76
2023/04/28 07:11:35;;;;;;;31.00;17.30;;;;;;;39.42;37.91;101073.13;4956069;28;20430;-76
2023/04/28 07:14:01;;;;;;;33.60;20.20;;;;;;;39.38;38.05;101089.22;4939012;29;20427;-76
2023/04/28 07:16:27;;;;;;;22.37;16.60;;;;;;;39.42;38.13;101089.44;4955442;28;20458;-76
2023/04/28 07:18:54;;;;;;;25.40;18.80;;;;;;;39.29;37.90;101095.72;4946764;29;20460;-76
2023/04/28 07:21:21;;;;;;;31.73;18.23;;;;;;;39.23;37.83;101097.78;4938188;29;20423;-75
2023/04/28 07:23:47;;;;;;;27.83;15.73;;;;;;;39.30;38.13;101105.47;4954705;29;20840;-75
2023/04/28 07:26:15;;;;;;;29.30;17.70;;;;;;;39.35;37.77;101110.75;4954318;29;20463;-76
2023/04/28 07:28:45;;;;;;;28.93;17.40;;;;;;;39.41;38.16;101110.34;4956038;28;20423;-75
2023/04/28 07:31:11;;;;;;;29.70;19.00;;;;;;;39.54;37.83;101113.28;4952377;29;20427;-74
2023/04/28 07:33:37;;;;;;;34.87;19.23;;;;;;;39.54;37.58;101119.50;4947319;28;20423;-75
2023/04/28 07:36:04;;;;;;;29.00;19.77;;;;;;;39.53;37.42;101122.50;4954347;28;20518;-77
2023/04/28 07:38:32;;;;;;;31.70;21.10;;;;;;;39.41;37.62;101125.78;4954358;29;20431;-75
2023/04/28 07:40:59;;;;;;;27.47;18.60;;;;;;;39.31;37.75;101136.94;4954142;29;20435;-76
2023/04/28 07:43:25;;;;;;;30.63;17.23;;;;;;;38.76;38.71;101137.91;4952167;28;20442;-75
2023/04/28 07:45:52;;;;;;;36.93;25.17;;;;;;;39.25;38.34;101143.59;4940569;28;20841;-73
2023/04/28 07:48:19;;;;;;;26.57;18.80;;;;;;;39.47;37.51;101135.41;4955692;28;20950;-75
2023/04/28 07:50:45;;;;;;;25.73;17.70;;;;;;;39.20;38.19;101136.38;4953994;28;20431;-73
2023/04/28 07:53:12;;;;;;;27.57;17.43;;;;;;;39.26;37.78;101146.00;4953994;28;20458;-75
2023/04/28 07:55:40;;;;;;;23.30;14.93;;;;;;;39.47;37.88;101149.00;4955469;28;20546;-73
2023/04/28 07:58:08;;;;;;;32.07;17.60;;;;;;;39.71;37.24;101140.53;4953719;29;20825;-74
2023/04/28 08:00:34;;;;;;;23.00;16.20;;;;;;;39.73;37.39;101144.56;4937079;29;20834;-73
2023/04/28 08:03:00;;;;;;;33.40;19.60;;;;;;;39.79;36.91;101147.94;4953969;29;20430;-74
2023/04/28 08:05:27;;;;;;;28.83;19.50;;;;;;;39.86;36.96;101153.72;4953555;28;20505;-74
2023/04/28 08:07:53;;;;;;;29.77;19.63;;;;;;;39.88;36.99;101156.13;4947812;28;20440;-75
2023/04/28 08:10:20;;;;;;;28.70;19.67;;;;;;;39.89;37.32;101163.16;4947174;28;20436;-74
2023/04/28 08:12:46;;;;;;;25.40;15.13;;;;;;;39.94;36.64;101154.88;4947413;29;20449;-73
2023/04/28 08:15:13;;;;;;;27.63;16.30;;;;;;;40.03;36.93;101159.22;4942179;29;20517;-75
2023/04/28 08:17:40;;;;;;;23.37;17.30;;;;;;;40.03;37.41;101161.16;4937701;29;20481;-74
2023/04/28 08:20:07;;;;;;;26.13;15.73;;;;;;;39.95;36.84;101162.69;4952961;28;20851;-75
2023/04/28 08:22:34;;;;;;;23.40;19.27;;;;;;;39.98;37.38;101158.56;4944692;28;20619;-75
2023/04/28 08:25:00;;;;;;;34.80;21.07;;;;;;;40.09;37.29;101159.94;4952296;28;20460;-74
2023/04/28 08:27:27;;;;;;;26.17;19.00;;;;;;;39.98;37.18;101167.50;4952996;28;20435;-73
2023/04/28 08:29:53;;;;;;;22.37;14.80;;;;;;;39.94;37.12;101161.09;4937306;29;20541;-74
2023/04/28 08:32:20;;;;;;;22.40;14.37;;;;;;;40.00;36.84;101165.28;4951898;28;20518;-74
2023/04/28 08:34:46;;;;;;;23.30;15.63;;;;;;;40.11;36.47;101163.13;4949637;28;20478;-75
2023/04/28 08:37:12;;;;;;;21.10;16.77;;;;;;;40.18;36.93;101171.63;4926745;29;20478;-74
2023/04/28 08:39:39;;;;;;;22.77;14.70;;;;;;;40.23;36.71;101174.19;4936434;29;20830;-75
2023/04/28 08:42:05;;;;;;;28.50;15.27;;;;;;;40.28;36.55;101176.78;4951592;29;20427;-74
2023/04/28 08:44:39;;;;;;;23.93;14.33;;;;;;;40.27;36.74;101174.38;4948621;29;20455;-74
2023/04/28 08:47:13;;;;;;;22.50;13.27;;;;;;;40.34;36.63;101169.28;4951441;29;20438;-74
2023/04/28 08:49:40;;;;;;;24.20;14.97;;;;;;;40.42;36.51;101182.06;4950459;29;20435;-74
2023/04/28 08:52:11;;;;;;;25.97;16.77;;;;;;;40.41;37.01;101174.25;4952417;28;20442;-74
2023/04/28 08:54:40;;;;;;;27.93;16.23;;;;;;;40.45;36.90;101169.75;4948528;29;20431;-74
2023/04/28 08:57:10;;;;;;;29.70;17.07;;;;;;;40.51;36.65;101172.03;4950954;29;20531;-74
2023/04/28 08:59:40;;;;;;;29.80;17.80;;;;;;;40.44;37.13;101173.59;4952507;29;20430;-74
2023/04/28 09:02:09;;;;;;;29.20;17.70;;;;;;;40.47;36.88;101172.97;4951235;29;20419;-74
2023/04/28 09:04:36;;;;;;;29.13;17.87;;;;;;;40.49;37.35;101173.50;4966411;28;20536;-74
2023/04/28 09:07:03;;;;;;;27.60;16.90;;;;;;;40.42;37.44;101186.72;4952597;29;20482;-74
2023/04/28 09:09:30;;;;;;;29.47;17.67;;;;;;;40.46;37.25;101179.53;4952780;29;20431;-75
2023/04/28 09:11:59;;;;;;;23.90;15.60;;;;;;;40.47;37.50;101181.13;4948829;28;20978;-74
2023/04/28 09:14:29;;;;;;;24.60;16.47;;;;;;;40.57;37.63;101180.06;4946857;29;20439;-75
2023/04/28 09:16:56;;;;;;;24.13;17.27;;;;;;;40.61;37.21;101181.81;4952149;28;20442;-73
2023/04/28 09:19:23;;;;;;;27.57;18.63;;;;;;;40.59;37.47;101186.78;4950968;28;20435;-75
2023/04/28 09:21:52;;;;;;;26.70;17.50;;;;;;;40.65;37.54;101182.00;4953518;28;20431;-74
2023/04/28 09:24:45;;;;;;;28.70;19.80;;;;;;;40.64;37.27;101189.38;4952222;29;20991;-74
2023/04/28 09:27:14;;;;;;;27.07;19.67;;;;;;;40.71;36.61;101183.47;4952245;28;20436;-74
2023/04/28 09:29:53;;;;;;;27.07;16.20;;;;;;;40.60;36.78;101182.16;4952141;29;20951;-75
2023/04/28 09:32:21;;;;;;;22.90;16.77;;;;;;;40.69;37.03;101183.75;4949990;29;20426;-74
2023/04/28 09:34:50;;;;;;;27.00;16.83;;;;;;;40.73;37.03;101184.72;4952240;28;20519;-75
2023/04/28 09:37:20;;;;;;;26.13;17.27;;;;;;;40.84;36.94;101184.44;4953125;28;20864;-74
2023/04/28 09:39:49;;;;;;;32.30;17.63;;;;;;;40.72;36.69;101183.13;4952095;28;20438;-75
2023/04/28 09:42:33;;;;;;;24.13;16.33;;;;;;;40.84;36.81;101179.78;4952963;28;20419;-75
2023/04/28 09:45:03;;;;;;;21.37;13.90;;;;;;;40.94;36.94;101181.41;4957187;28;20474;-76
2023/04/28 09:47:32;;;;;;;17.70;10.90;;;;;;;40.95;36.05;101192.00;4956764;28;20423;-76
2023/04/28 09:50:03;;;;;;;24.83;11.17;;;;;;;41.03;35.12;101187.66;4956974;28;20923;-75
2023/04/28 09:52:31;;;;;;;18.27;9.93;;;;;;;41.03;34.88;101190.38;4955151;28;20447;-76
2023/04/28 09:54:58;;;;;;;18.37;8.87;;;;;;;41.08;34.40;101184.78;4955993;29;20442;-76
2023/04/28 09:57:25;;;;;;;11.23;6.87;;;;;;;41.10;34.26;101184.47;4955851;29;20947;-74
2023/04/28 09:59:53;;;;;;;18.23;11.30;;;;;;;41.15;35.23;101187.03;4955339;28;20541;-76
2023/04/28 10:02:21;;;;;;;22.20;11.53;;;;;;;41.19;34.93;101186.06;4954917;28;20423;-74
2023/04/28 10:04:49;;;;;;;20.03;11.70;;;;;;;41.25;35.40;101186.66;4956925;28;20455;-75
2023/04/28 10:07:18;;;;;;;30.77;19.87;;;;;;;41.37;35.34;101188.78;4955126;28;20526;-76
2023/04/28 10:09:49;;;;;;;20.50;14.20;;;;;;;41.39;35.89;101192.00;4955572;28;20445;-74
2023/04/28 10:12:20;;;;;;;25.17;14.67;;;;;;;41.44;35.25;101187.19;4955225;28;20467;-76
2023/04/28 10:14:55;;;;;;;22.23;13.77;;;;;;;41.42;35.42;101186.69;4939452;29;20439;-74
2023/04/28 10:17:26;;;;;;;18.13;12.43;;;;;;;41.41;35.43;101192.47;4954814;28;20820;-75
2023/04/28 10:19:53;;;;;;;16.90;9.90;;;;;;;41.42;35.58;101186.69;4955919;28;20461;-75
2023/04/28 10:22:47;;;;;;;14.60;9.27;;;;;;;41.44;35.56;101195.34;4955238;29;20454;-74
2023/04/28 10:25:37;;;;;;;13.57;8.37;;;;;;;41.47;35.34;101186.53;4955088;29;20645;-74
2023/04/28 10:28:08;;;;;;;15.10;8.13;;;;;;;41.57;35.52;101186.19;4954179;29;20605;-74
2023/04/28 10:30:36;;;;;;;16.00;8.03;;;;;;;41.55;34.39;101184.91;4955379;29;20427;-74
2023/04/28 10:33:14;;;;;;;13.67;6.90;;;;;;;41.50;34.68;101179.66;4954483;29;20423;-75
2023/04/28 10:35:47;;;;;;;17.03;6.50;;;;;;;41.41;34.04;101178.84;4954841;28;20451;-75
2023/04/28 10:38:19;;;;;;;13.70;8.07;;;;;;;41.48;34.66;101176.44;4958062;28;20471;-74
2023/04/28 10:40:48;;;;;;;19.90;5.97;;;;;;;41.52;34.04;101185.56;4946621;28;20442;-74
2023/04/28 10:43:32;;;;;;;13.80;6.70;;;;;;;41.51;34.03;101178.53;4954819;28;20541;-74
2023/04/28 10:46:00;;;;;;;19.97;7.43;;;;;;;41.51;34.32;101175.78;4954843;28;20462;-74
2023/04/28 10:48:32;;;;;;;17.80;7.90;;;;;;;41.54;34.60;101170.50;4954354;28;20439;-75
2023/04/28 10:51:06;;;;;;;16.20;7.57;;;;;;;41.44;34.44;101167.31;4954347;28;20843;-73
2023/04/28 10:53:44;;;;;;;16.37;7.87;;;;;;;41.51;34.84;101171.16;4956197;28;20427;-75
2023/04/28 10:56:23;;;;;;;12.07;7.20;;;;;;;41.57;34.35;101171.78;4953433;28;20435;-74
2023/04/28 10:58:57;;;;;;;34.53;8.50;;;;;;;41.61;34.36;101169.97;4954638;28;20486;-74
2023/04/28 11:01:33;;;;;;;12.57;6.23;;;;;;;41.63;34.61;101159.59;4953931;28;20435;-75
2023/04/28 11:04:12;;;;;;;19.13;7.80;;;;;;;41.69;34.88;101157.50;4954176;29;20470;-74
2023/04/28 11:06:40;;;;;;;14.97;7.17;;;;;;;41.69;34.49;101155.56;4954541;29;20483;-75
2023/04/28 11:09:18;;;;;;;18.40;5.73;;;;;;;41.67;33.93;101148.81;4954364;29;20468;-76
2023/04/28 11:11:54;;;;;;;11.53;5.40;;;;;;;41.66;34.21;101149.94;4954632;29;20426;-74
2023/04/28 11:14:21;;;;;;;10.27;5.77;;;;;;;41.72;33.96;101151.38;4955166;28;20966;-75
2023/04/28 11:16:52;;;;;;;15.70;6.90;;;;;;;41.74;34.32;101162.72;4955411;28;20423;-77